createdAt,value
2018-05-27T00:02:04.917Z,16.20
2018-05-27T00:04:34.162Z,16.20
2018-05-27T00:07:03.520Z,16.20
2018-05-27T00:09:32.817Z,16.20
2018-05-27T00:12:02.070Z,16.10
2018-05-27T00:14:31.371Z,16.10
2018-05-27T00:17:00.726Z,16.10
2018-05-27T00:19:30.031Z,16.10
2018-05-27T00:22:00.148Z,16.10
2018-05-27T00:24:29.552Z,16.10
2018-05-27T00:26:58.957Z,16.10
2018-05-27T00:29:29.019Z,16.00
2018-05-27T00:31:58.383Z,15.90
2018-05-27T00:34:28.501Z,15.80
2018-05-27T00:36:57.901Z,15.80
2018-05-27T00:39:27.307Z,15.70
2018-05-27T00:41:56.606Z,15.70
2018-05-27T00:44:26.009Z,15.70
2018-05-27T00:46:56.128Z,15.80
2018-05-27T00:49:25.464Z,15.70
2018-05-27T00:51:54.781Z,15.80
2018-05-27T00:54:24.140Z,15.80
2018-05-27T00:56:54.201Z,15.80
2018-05-27T00:59:23.456Z,15.80
2018-05-27T01:01:52.859Z,15.80
2018-05-27T01:04:22.984Z,15.70
2018-05-27T01:06:53.100Z,15.70
2018-05-27T01:09:22.389Z,15.60
2018-05-27T01:11:51.705Z,15.50
2018-05-27T01:14:22.858Z,15.30
2018-05-27T01:16:52.967Z,15.30
2018-05-27T01:19:22.375Z,15.20
2018-05-27T01:21:51.671Z,15.20
2018-05-27T01:24:21.075Z,15.20
2018-05-27T01:26:50.376Z,15.30
2018-05-27T01:29:19.788Z,15.20
2018-05-27T01:31:49.905Z,15.20
2018-05-27T01:34:20.021Z,15.30
2018-05-27T01:36:49.322Z,15.20
2018-05-27T01:39:19.443Z,15.30
2018-05-27T01:41:48.741Z,15.30
2018-05-27T01:44:18.147Z,15.30
2018-05-27T01:46:47.448Z,15.30
2018-05-27T01:49:16.852Z,15.30
2018-05-27T01:51:46.155Z,15.30
2018-05-27T01:54:15.455Z,15.30
2018-05-27T01:56:44.761Z,15.30
2018-05-27T01:59:14.877Z,15.20
2018-05-27T02:01:44.281Z,15.20
2018-05-27T02:04:13.580Z,15.10
2018-05-27T02:06:42.873Z,15.20
2018-05-27T02:09:12.185Z,15.20
2018-05-27T02:11:41.486Z,15.20
2018-05-27T02:14:10.803Z,15.20
2018-05-27T02:16:40.088Z,15.30
2018-05-27T02:19:09.491Z,15.20
2018-05-27T02:21:38.896Z,15.20
2018-05-27T02:24:08.202Z,15.20
2018-05-27T02:26:38.317Z,15.20
2018-05-27T02:29:07.617Z,15.20
2018-05-27T02:31:37.129Z,15.20
2018-05-27T02:34:07.245Z,15.20
2018-05-27T02:36:36.634Z,15.20
2018-05-27T02:39:06.666Z,15.20
2018-05-27T02:41:36.787Z,15.10
2018-05-27T02:44:06.088Z,15.20
2018-05-27T02:46:35.391Z,15.10
2018-05-27T02:49:04.791Z,15.10
2018-05-27T02:51:34.101Z,15.10
2018-05-27T02:54:04.215Z,15.00
2018-05-27T02:56:33.606Z,15.00
2018-05-27T02:59:02.996Z,15.00
2018-05-27T03:01:32.323Z,15.00
2018-05-27T03:04:01.728Z,14.90
2018-05-27T03:06:31.117Z,14.90
2018-05-27T03:09:00.432Z,14.90
2018-05-27T03:11:29.823Z,14.90
2018-05-27T03:13:59.139Z,14.90
2018-05-27T03:16:28.527Z,14.80
2018-05-27T03:18:57.846Z,14.80
2018-05-27T03:21:27.134Z,14.80
2018-05-27T03:23:56.443Z,14.80
2018-05-27T03:26:25.744Z,14.70
2018-05-27T03:28:55.046Z,14.70
2018-05-27T03:31:24.450Z,14.70
2018-05-27T03:33:53.752Z,14.70
2018-05-27T03:36:23.152Z,14.70
2018-05-27T03:38:52.457Z,14.80
2018-05-27T03:41:21.859Z,14.80
2018-05-27T03:43:51.160Z,14.80
2018-05-27T03:46:20.565Z,14.80
2018-05-27T03:48:49.967Z,14.70
2018-05-27T03:51:19.272Z,14.70
2018-05-27T03:53:48.672Z,14.70
2018-05-27T03:56:17.975Z,14.70
2018-05-27T03:58:49.017Z,14.60
2018-05-27T04:01:18.423Z,14.60
2018-05-27T04:04:05.398Z,14.70
2018-05-27T04:06:52.464Z,14.80
2018-05-27T04:09:22.575Z,14.90
2018-05-27T04:11:51.875Z,14.80
2018-05-27T04:14:21.176Z,14.80
2018-05-27T04:16:50.477Z,14.90
2018-05-27T04:19:19.780Z,14.90
2018-05-27T04:21:49.855Z,15.10
2018-05-27T04:24:19.200Z,15.00
2018-05-27T04:26:48.501Z,15.10
2018-05-27T04:29:17.750Z,15.10
2018-05-27T04:31:47.104Z,15.20
2018-05-27T04:34:16.404Z,15.20
2018-05-27T04:36:45.808Z,15.20
2018-05-27T04:39:15.062Z,15.30
2018-05-27T04:41:44.411Z,15.40
2018-05-27T04:44:13.711Z,15.40
2018-05-27T04:46:43.108Z,15.50
2018-05-27T04:49:12.423Z,15.60
2018-05-27T04:51:41.820Z,15.70
2018-05-27T04:54:11.329Z,15.80
2018-05-27T04:56:40.620Z,15.90
2018-05-27T04:59:09.971Z,16.00
2018-05-27T05:01:39.334Z,16.10
2018-05-27T05:04:08.740Z,16.20
2018-05-27T05:06:38.030Z,16.30
2018-05-27T05:09:07.345Z,16.50
2018-05-27T05:11:37.397Z,16.60
2018-05-27T05:14:06.706Z,16.60
2018-05-27T05:16:36.009Z,16.70
2018-05-27T05:19:05.364Z,16.80
2018-05-27T05:21:34.749Z,16.90
2018-05-27T05:24:04.068Z,17.00
2018-05-27T05:26:33.472Z,17.10
2018-05-27T05:29:02.871Z,17.20
2018-05-27T05:31:32.177Z,17.30
2018-05-27T05:34:01.478Z,17.30
2018-05-27T05:36:30.768Z,17.40
2018-05-27T05:39:00.082Z,17.50
2018-05-27T05:41:29.381Z,17.60
2018-05-27T05:43:58.683Z,17.70
2018-05-27T05:46:27.983Z,17.80
2018-05-27T05:48:57.388Z,17.80
2018-05-27T05:51:26.786Z,17.90
2018-05-27T05:53:56.099Z,17.90
2018-05-27T05:56:26.213Z,18.10
2018-05-27T05:58:55.507Z,18.10
2018-05-27T06:01:26.349Z,18.30
2018-05-27T06:03:55.640Z,18.30
2018-05-27T06:06:24.954Z,18.40
2018-05-27T06:08:54.257Z,18.50
2018-05-27T06:11:23.659Z,18.60
2018-05-27T06:13:52.960Z,18.70
2018-05-27T06:16:22.264Z,18.90
2018-05-27T06:18:51.665Z,19.00
2018-05-27T06:21:20.967Z,19.10
2018-05-27T06:23:50.268Z,19.30
2018-05-27T06:26:19.673Z,19.40
2018-05-27T06:28:49.017Z,19.50
2018-05-27T06:31:18.376Z,19.60
2018-05-27T06:33:47.724Z,19.70
2018-05-27T06:36:17.087Z,19.80
2018-05-27T06:38:47.189Z,19.90
2018-05-27T06:41:16.707Z,19.90
2018-05-27T06:43:46.114Z,19.90
2018-05-27T06:46:15.417Z,20.00
2018-05-27T06:48:44.730Z,20.10
2018-05-27T06:51:14.856Z,20.40
2018-05-27T06:53:44.125Z,20.40
2018-05-27T06:56:13.437Z,20.60
2018-05-27T06:58:42.731Z,20.70
2018-05-27T07:01:12.039Z,20.90
2018-05-27T07:03:42.876Z,21.10
2018-05-27T07:06:12.179Z,21.10
2018-05-27T07:08:41.524Z,21.30
2018-05-27T07:11:10.882Z,21.50
2018-05-27T07:13:40.276Z,21.70
2018-05-27T07:16:09.592Z,21.90
2018-05-27T07:18:38.991Z,22.10
2018-05-27T07:21:08.299Z,22.10
2018-05-27T07:23:38.411Z,22.30
2018-05-27T07:26:07.818Z,22.20
2018-05-27T07:28:37.937Z,22.40
2018-05-27T07:31:08.057Z,22.50
2018-05-27T07:33:37.460Z,22.50
2018-05-27T07:36:06.766Z,22.60
2018-05-27T07:38:36.882Z,22.80
2018-05-27T07:41:06.287Z,22.70
2018-05-27T07:43:36.406Z,22.90
2018-05-27T07:46:05.704Z,22.80
2018-05-27T07:48:36.545Z,23.00
2018-05-27T07:51:05.949Z,23.00
2018-05-27T07:53:35.249Z,23.10
2018-05-27T07:56:04.641Z,23.10
2018-05-27T07:58:35.489Z,23.20
2018-05-27T08:01:04.894Z,23.20
2018-05-27T08:03:34.964Z,23.30
2018-05-27T08:06:04.317Z,23.30
2018-05-27T08:08:33.720Z,23.30
2018-05-27T08:11:03.011Z,23.40
2018-05-27T08:13:32.321Z,23.30
2018-05-27T08:16:01.624Z,23.30
2018-05-27T08:18:31.026Z,23.30
2018-05-27T08:21:00.324Z,23.30
2018-05-27T08:23:29.615Z,23.30
2018-05-27T08:26:00.455Z,23.40
2018-05-27T08:28:29.770Z,23.40
2018-05-27T08:30:59.888Z,23.50
2018-05-27T08:33:29.950Z,23.50
2018-05-27T08:35:59.309Z,23.50
2018-05-27T08:38:28.609Z,23.40
2018-05-27T08:40:58.015Z,23.40
2018-05-27T08:43:27.331Z,23.50
2018-05-27T08:45:57.436Z,23.50
2018-05-27T08:48:26.942Z,23.50
2018-05-27T08:50:56.345Z,23.50
2018-05-27T08:53:25.672Z,23.60
2018-05-27T08:55:54.994Z,23.60
2018-05-27T08:58:24.356Z,23.70
2018-05-27T09:00:54.472Z,24.10
2018-05-27T09:03:23.820Z,24.10
2018-05-27T09:05:53.175Z,24.30
2018-05-27T09:08:22.421Z,24.40
2018-05-27T09:10:51.762Z,24.50
2018-05-27T09:13:20.992Z,24.60
2018-05-27T09:15:51.099Z,24.80
2018-05-27T09:18:20.386Z,24.80
2018-05-27T09:20:49.699Z,24.90
2018-05-27T09:23:18.992Z,25.00
2018-05-27T09:25:48.306Z,25.10
2018-05-27T09:28:17.599Z,25.10
2018-05-27T09:30:46.952Z,25.20
2018-05-27T09:33:16.207Z,25.20
2018-05-27T09:35:45.611Z,25.20
2018-05-27T09:38:15.120Z,25.20
2018-05-27T09:40:45.241Z,25.20
2018-05-27T09:43:16.177Z,25.30
2018-05-27T09:45:45.584Z,25.30
2018-05-27T09:48:14.974Z,25.40
2018-05-27T09:50:44.284Z,25.50
2018-05-27T09:53:13.792Z,25.60
2018-05-27T09:55:43.095Z,25.70
2018-05-27T09:58:12.450Z,25.70
2018-05-27T10:00:41.805Z,25.70
2018-05-27T10:03:11.918Z,25.80
2018-05-27T10:05:41.321Z,25.80
2018-05-27T10:08:10.725Z,25.80
2018-05-27T10:10:40.117Z,25.80
2018-05-27T10:13:09.431Z,25.90
2018-05-27T10:15:38.772Z,26.10
2018-05-27T10:18:08.033Z,26.10
2018-05-27T10:20:37.436Z,26.10
2018-05-27T10:23:06.743Z,26.10
2018-05-27T10:25:36.857Z,25.90
2018-05-27T10:28:06.152Z,25.90
2018-05-27T10:30:36.997Z,25.90
2018-05-27T10:33:06.298Z,25.90
2018-05-27T10:35:35.700Z,26.00
2018-05-27T10:38:05.105Z,26.00
2018-05-27T10:40:35.224Z,26.10
2018-05-27T10:43:04.575Z,26.00
2018-05-27T10:45:33.930Z,26.10
2018-05-27T10:48:03.377Z,26.20
2018-05-27T10:50:32.635Z,26.20
2018-05-27T10:53:02.039Z,26.20
2018-05-27T10:55:31.442Z,26.30
2018-05-27T10:58:00.842Z,26.30
2018-05-27T11:00:30.147Z,26.40
2018-05-27T11:02:59.448Z,26.50
2018-05-27T11:05:28.850Z,26.60
2018-05-27T11:07:58.155Z,26.60
2018-05-27T11:10:27.546Z,26.50
2018-05-27T11:12:56.961Z,26.50
2018-05-27T11:15:26.261Z,26.50
2018-05-27T11:17:55.669Z,26.40
2018-05-27T11:20:24.965Z,26.50
2018-05-27T11:22:54.268Z,26.50
2018-05-27T11:25:23.564Z,26.60
2018-05-27T11:27:52.871Z,26.70
2018-05-27T11:30:22.171Z,26.70
2018-05-27T11:32:51.473Z,26.80
2018-05-27T11:35:21.593Z,26.90
2018-05-27T11:37:50.845Z,26.90
2018-05-27T11:40:20.194Z,27.00
2018-05-27T11:42:49.541Z,27.30
2018-05-27T11:45:18.899Z,27.50
2018-05-27T11:47:48.302Z,27.60
2018-05-27T11:50:17.607Z,27.80
2018-05-27T11:52:47.715Z,28.00
2018-05-27T11:55:17.007Z,28.00
2018-05-27T11:57:46.320Z,28.10
2018-05-27T12:00:15.712Z,28.20
2018-05-27T12:02:44.977Z,28.40
2018-05-27T12:05:14.231Z,28.40
2018-05-27T12:07:44.294Z,28.40
2018-05-27T12:10:13.602Z,28.40
2018-05-27T12:12:42.940Z,28.40
2018-05-27T12:15:12.254Z,28.40
2018-05-27T12:17:42.316Z,28.10
2018-05-27T12:20:11.617Z,28.10
2018-05-27T12:22:40.978Z,28.00
2018-05-27T12:25:11.097Z,27.90
2018-05-27T12:27:40.504Z,27.90
2018-05-27T12:30:10.526Z,27.80
2018-05-27T12:32:40.639Z,27.80
2018-05-27T12:35:10.044Z,27.80
2018-05-27T12:37:39.344Z,27.80
2018-05-27T12:40:10.126Z,28.00
2018-05-27T12:42:39.483Z,28.00
2018-05-27T12:45:10.320Z,28.30
2018-05-27T12:47:41.097Z,28.40
2018-05-27T12:50:10.459Z,28.50
2018-05-27T12:52:39.867Z,28.70
2018-05-27T12:55:09.164Z,28.70
2018-05-27T12:57:38.567Z,28.70
2018-05-27T13:00:07.870Z,28.70
2018-05-27T13:02:37.158Z,28.80
2018-05-27T13:05:06.512Z,28.70
2018-05-27T13:07:35.875Z,28.50
2018-05-27T13:10:05.996Z,28.00
2018-05-27T13:12:35.399Z,28.00
2018-05-27T13:15:05.518Z,28.10
2018-05-27T13:17:35.627Z,28.00
2018-05-27T13:20:05.044Z,27.90
2018-05-27T13:22:34.446Z,27.80
2018-05-27T13:25:03.851Z,27.60
2018-05-27T13:27:33.971Z,27.20
2018-05-27T13:30:03.382Z,27.20
2018-05-27T13:32:33.437Z,26.90
2018-05-27T13:35:02.694Z,27.00
2018-05-27T13:37:31.979Z,27.00
2018-05-27T13:40:01.297Z,27.10
2018-05-27T13:42:30.584Z,27.20
2018-05-27T13:44:59.908Z,27.40
2018-05-27T13:47:29.302Z,27.50
2018-05-27T13:49:58.605Z,27.60
2018-05-27T13:52:28.724Z,27.90
2018-05-27T13:54:58.789Z,28.00
2018-05-27T13:57:28.089Z,28.00
2018-05-27T13:59:57.447Z,28.10
2018-05-27T14:02:26.749Z,28.10
2018-05-27T14:04:56.818Z,28.00
2018-05-27T14:07:26.176Z,28.00
2018-05-27T14:09:56.290Z,27.80
2018-05-27T14:12:27.128Z,27.90
2018-05-27T14:14:56.417Z,27.90
2018-05-27T14:17:25.737Z,28.00
2018-05-27T14:19:55.854Z,28.10
2018-05-27T14:22:25.254Z,28.00
2018-05-27T14:24:54.660Z,28.00
2018-05-27T14:27:24.779Z,27.70
2018-05-27T14:29:54.897Z,27.60
2018-05-27T14:32:24.301Z,27.60
2018-05-27T14:34:53.705Z,27.50
2018-05-27T14:37:23.009Z,27.40
2018-05-27T14:39:53.128Z,27.30
2018-05-27T14:42:23.251Z,27.40
2018-05-27T14:44:52.683Z,27.40
2018-05-27T14:47:22.772Z,27.70
2018-05-27T14:49:52.832Z,27.70
2018-05-27T14:52:22.137Z,27.70
2018-05-27T14:54:51.437Z,27.80
2018-05-27T14:57:20.797Z,27.80
2018-05-27T14:59:50.100Z,27.80
2018-05-27T15:02:19.392Z,27.80
2018-05-27T15:04:48.686Z,27.70
2018-05-27T15:07:18.050Z,27.60
2018-05-27T15:09:47.513Z,27.50
2018-05-27T15:12:16.916Z,27.40
2018-05-27T15:14:46.318Z,27.30
2018-05-27T15:17:15.661Z,27.20
2018-05-27T15:19:44.977Z,27.20
2018-05-27T15:22:14.319Z,27.20
2018-05-27T15:24:43.725Z,27.20
2018-05-27T15:27:13.789Z,27.10
2018-05-27T15:29:43.454Z,27.10
2018-05-27T15:32:13.545Z,27.00
2018-05-27T15:34:42.876Z,27.00
2018-05-27T15:37:15.717Z,26.90
2018-05-27T15:39:46.186Z,26.80
2018-05-27T15:42:15.594Z,26.80
2018-05-27T15:44:44.885Z,26.80
2018-05-27T15:47:14.302Z,26.80
2018-05-27T15:49:44.415Z,26.70
2018-05-27T15:52:13.818Z,26.70
2018-05-27T15:54:43.121Z,26.70
2018-05-27T15:57:12.525Z,26.70
2018-05-27T15:59:42.653Z,26.80
2018-05-27T16:02:12.708Z,26.90
2018-05-27T16:04:42.070Z,26.80
2018-05-27T16:07:12.188Z,27.00
2018-05-27T16:09:42.308Z,27.10
2018-05-27T16:12:11.711Z,27.10
2018-05-27T16:14:41.014Z,27.10
2018-05-27T16:17:10.416Z,27.10
2018-05-27T16:19:39.718Z,27.10
2018-05-27T16:22:09.024Z,27.10
2018-05-27T16:24:39.138Z,27.00
2018-05-27T16:27:08.429Z,27.00
2018-05-27T16:29:37.842Z,27.00
2018-05-27T16:32:07.137Z,26.90
2018-05-27T16:34:36.451Z,26.90
2018-05-27T16:37:05.849Z,26.90
2018-05-27T16:39:35.153Z,26.90
2018-05-27T16:42:04.556Z,26.80
2018-05-27T16:44:33.959Z,26.70
2018-05-27T16:47:03.258Z,26.70
2018-05-27T16:49:32.668Z,26.70
2018-05-27T16:52:01.962Z,26.60
2018-05-27T16:54:31.264Z,26.50
2018-05-27T16:57:00.569Z,26.50
2018-05-27T16:59:30.686Z,26.30
2018-05-27T17:01:59.992Z,26.30
2018-05-27T17:04:29.291Z,26.30
2018-05-27T17:06:58.795Z,26.20
2018-05-27T17:09:28.098Z,26.10
2018-05-27T17:11:58.217Z,26.00
2018-05-27T17:14:27.504Z,26.00
2018-05-27T17:16:56.820Z,25.90
2018-05-27T17:19:26.111Z,25.90
2018-05-27T17:21:55.426Z,25.80
2018-05-27T17:24:25.543Z,25.70
2018-05-27T17:26:54.843Z,25.70
2018-05-27T17:29:24.249Z,25.60
2018-05-27T17:31:53.546Z,25.60
2018-05-27T17:34:22.955Z,25.50
2018-05-27T17:36:53.013Z,25.40
2018-05-27T17:39:22.374Z,25.40
2018-05-27T17:41:51.753Z,25.40
2018-05-27T17:44:21.079Z,25.30
2018-05-27T17:46:50.483Z,25.30
2018-05-27T17:49:19.890Z,25.30
2018-05-27T17:51:49.294Z,25.20
2018-05-27T17:54:19.457Z,25.00
2018-05-27T17:56:48.813Z,25.00
2018-05-27T17:59:18.217Z,24.90
2018-05-27T18:01:47.518Z,24.90
2018-05-27T18:04:16.943Z,24.80
2018-05-27T18:06:46.268Z,24.70
2018-05-27T18:09:15.626Z,24.60
2018-05-27T18:11:45.035Z,24.50
2018-05-27T18:14:15.109Z,24.30
2018-05-27T18:16:44.393Z,24.30
2018-05-27T18:19:13.738Z,24.20
2018-05-27T18:21:44.579Z,23.90
2018-05-27T18:24:13.895Z,23.90
2018-05-27T18:26:43.295Z,23.80
2018-05-27T18:29:12.597Z,23.80
2018-05-27T18:31:42.000Z,23.70
2018-05-27T18:34:11.302Z,23.60
2018-05-27T18:36:40.705Z,23.50
2018-05-27T18:39:10.006Z,23.40
2018-05-27T18:41:39.308Z,23.40
2018-05-27T18:44:09.428Z,23.20
2018-05-27T18:46:39.547Z,23.10
2018-05-27T18:49:08.850Z,23.00
2018-05-27T18:51:38.255Z,23.00
2018-05-27T18:54:08.372Z,22.90
2018-05-27T18:56:37.636Z,22.90
2018-05-27T18:59:06.987Z,22.80
2018-05-27T19:01:36.277Z,22.70
2018-05-27T19:04:05.727Z,22.60
2018-05-27T19:06:34.986Z,22.60
2018-05-27T19:09:04.487Z,22.50
2018-05-27T19:11:33.893Z,22.30
2018-05-27T19:14:04.010Z,22.30
2018-05-27T19:16:33.417Z,22.20
2018-05-27T19:19:02.821Z,22.20
2018-05-27T19:21:32.223Z,22.10
2018-05-27T19:24:01.524Z,22.00
2018-05-27T19:26:30.869Z,21.90
2018-05-27T19:29:00.230Z,21.90
2018-05-27T19:31:29.633Z,21.90
2018-05-27T19:33:58.934Z,21.80
2018-05-27T19:36:28.338Z,21.80
2018-05-27T19:38:57.638Z,21.80
2018-05-27T19:41:31.960Z,21.70
2018-05-27T19:44:02.490Z,21.70
2018-05-27T19:46:32.029Z,21.70
2018-05-27T19:49:01.546Z,21.70
2018-05-27T19:51:30.904Z,21.70
2018-05-27T19:54:00.308Z,21.60
2018-05-27T19:56:30.378Z,21.50
2018-05-27T19:58:59.729Z,21.50
2018-05-27T20:01:29.030Z,21.40
2018-05-27T20:03:58.421Z,21.30
2018-05-27T20:06:27.738Z,21.10
2018-05-27T20:08:57.035Z,21.00
2018-05-27T20:11:26.338Z,20.90
2018-05-27T20:13:55.639Z,20.90
2018-05-27T20:16:25.041Z,20.90
2018-05-27T20:18:55.108Z,20.80
2018-05-27T20:21:24.463Z,20.80
2018-05-27T20:23:53.870Z,20.80
2018-05-27T20:26:23.988Z,20.70
2018-05-27T20:28:53.392Z,20.70
2018-05-27T20:31:22.795Z,20.70
2018-05-27T20:33:52.098Z,20.70
2018-05-27T20:36:22.203Z,20.70
2018-05-27T20:38:51.518Z,20.80
2018-05-27T20:41:20.921Z,20.70
2018-05-27T20:43:50.222Z,20.60
2018-05-27T20:46:19.628Z,20.50
2018-05-27T20:48:49.030Z,20.40
2018-05-27T20:51:19.150Z,20.20
2018-05-27T20:53:48.450Z,20.20
2018-05-27T20:56:17.850Z,20.10
2018-05-27T20:58:47.259Z,20.00
2018-05-27T21:01:16.558Z,19.90
2018-05-27T21:03:45.848Z,19.90
2018-05-27T21:06:15.161Z,19.80
2018-05-27T21:08:46.004Z,19.60
2018-05-27T21:11:15.431Z,19.60
2018-05-27T21:13:44.805Z,19.60
2018-05-27T21:16:14.210Z,19.50
2018-05-27T21:18:43.516Z,19.50
2018-05-27T21:21:13.631Z,19.50
2018-05-27T21:23:42.932Z,19.50
2018-05-27T21:26:12.336Z,19.50
2018-05-27T21:28:41.739Z,19.50
2018-05-27T21:31:11.040Z,19.40
2018-05-27T21:33:40.444Z,19.30
2018-05-27T21:36:09.745Z,19.20
2018-05-27T21:38:39.150Z,19.10
2018-05-27T21:41:08.449Z,19.00
2018-05-27T21:43:37.854Z,18.90
2018-05-27T21:46:07.206Z,18.90
2018-05-27T21:48:36.560Z,18.80
2018-05-27T21:51:05.967Z,18.80
2018-05-27T21:53:35.263Z,18.70
2018-05-27T21:56:04.682Z,18.70
2018-05-27T21:58:34.804Z,18.60
2018-05-27T22:01:05.010Z,18.50
2018-05-27T22:03:35.131Z,18.50
2018-05-27T22:06:04.535Z,18.50
2018-05-27T22:08:33.836Z,18.50
2018-05-27T22:11:03.239Z,18.40
2018-05-27T22:13:34.078Z,18.30
2018-05-27T22:16:03.374Z,18.30
2018-05-27T22:18:32.781Z,18.20
2018-05-27T22:21:02.186Z,18.10
2018-05-27T22:23:31.486Z,18.10
2018-05-27T22:26:00.889Z,18.10
2018-05-27T22:28:30.176Z,18.10
2018-05-27T22:30:59.493Z,18.20
2018-05-27T22:33:28.763Z,18.30
2018-05-27T22:35:58.097Z,18.30
2018-05-27T22:38:27.499Z,18.20
2018-05-27T22:40:56.801Z,18.10
2018-05-27T22:43:26.921Z,17.90
2018-05-27T22:45:56.222Z,17.90
2018-05-27T22:48:26.343Z,17.80
2018-05-27T22:50:55.746Z,17.80
2018-05-27T22:53:25.049Z,17.70
2018-05-27T22:55:54.861Z,17.70
2018-05-27T22:58:24.162Z,17.70
2018-05-27T23:00:53.565Z,17.70
2018-05-27T23:03:22.970Z,17.60
2018-05-27T23:05:52.235Z,17.60
2018-05-27T23:08:21.571Z,17.70
2018-05-27T23:10:50.866Z,17.70
2018-05-27T23:13:20.174Z,17.70
2018-05-27T23:15:49.577Z,17.70
2018-05-27T23:18:18.867Z,17.70
2018-05-27T23:20:48.284Z,17.70
2018-05-27T23:23:17.569Z,17.60
2018-05-27T23:25:46.989Z,17.60
2018-05-27T23:28:16.289Z,17.50
2018-05-27T23:30:45.690Z,17.50
2018-05-27T23:33:15.203Z,17.50
2018-05-27T23:35:44.496Z,17.60
2018-05-27T23:38:13.800Z,17.60
2018-05-27T23:40:43.104Z,17.50
2018-05-27T23:43:12.506Z,17.50
2018-05-27T23:45:42.626Z,17.40
2018-05-27T23:48:11.925Z,17.30
2018-05-27T23:50:41.229Z,17.40
2018-05-27T23:53:10.530Z,17.40
2018-05-27T23:55:39.932Z,17.40
2018-05-27T23:58:09.236Z,17.30
